Time;durP1;ratioP1;P1;durP2;ratioP2;P2;SDS_P1;SDS_P2;PMS_P1;PMS_P2;Temp;Humidity;BMP_temperature;BMP_pressure;BME280_temperature;BME280_humidity;BME280_pressure;Samples;Min_cycle;Max_cycle;Signal;HPM_P1;HPM_P2
2022/08/07 00:00:44;;;;;;;6.05;4.65;;;18.30;70.70;;;;;;5073370;28;20021;-72
2022/08/07 00:03:10;;;;;;;5.95;4.80;;;18.20;70.50;;;;;;5072921;28;20485;-72
2022/08/07 00:05:36;;;;;;;5.45;4.70;;;18.20;70.50;;;;;;5073378;28;20202;-72
2022/08/07 00:08:02;;;;;;;6.75;4.70;;;18.10;70.70;;;;;;5073162;28;20029;-71
2022/08/07 00:10:29;;;;;;;5.13;4.68;;;18.00;70.90;;;;;;5073173;28;20027;-72
2022/08/07 00:12:55;;;;;;;6.40;5.70;;;18.00;71.10;;;;;;5073179;28;20024;-72
2022/08/07 00:15:20;;;;;;;5.60;4.95;;;17.70;72.00;;;;;;5073276;28;20385;-72
2022/08/07 00:17:46;;;;;;;8.85;5.78;;;17.70;72.30;;;;;;5073360;28;20024;-72
2022/08/07 00:20:12;;;;;;;5.88;5.22;;;17.60;72.80;;;;;;5073163;28;20036;-72
2022/08/07 00:22:37;;;;;;;7.35;4.72;;;17.70;72.90;;;;;;5073162;28;20463;-71
2022/08/07 00:25:05;;;;;;;7.63;4.57;;;17.80;72.10;;;;;;5073700;28;20034;-71
2022/08/07 00:27:31;;;;;;;5.38;4.60;;;17.90;71.80;;;;;;5073208;28;20470;-72
2022/08/07 00:29:57;;;;;;;6.65;4.78;;;17.90;71.30;;;;;;5072956;28;20028;-72
2022/08/07 00:32:22;;;;;;;5.55;4.47;;;17.90;71.50;;;;;;5072871;28;20173;-72
2022/08/07 00:34:48;;;;;;;7.13;5.07;;;17.90;71.60;;;;;;5073000;28;20526;-72
2022/08/07 00:37:15;;;;;;;5.30;4.80;;;17.90;71.80;;;;;;5071723;28;20551;-72
2022/08/07 00:39:40;;;;;;;8.05;4.70;;;17.80;72.30;;;;;;5073012;28;20039;-72
2022/08/07 00:42:07;;;;;;;5.93;4.68;;;17.80;71.80;;;;;;5072881;28;20458;-72
2022/08/07 00:44:33;;;;;;;6.60;4.93;;;17.70;71.80;;;;;;5072910;28;20021;-72
2022/08/07 00:47:00;;;;;;;6.45;5.70;;;17.60;72.10;;;;;;5072577;28;20049;-72
2022/08/07 00:49:25;;;;;;;5.80;5.07;;;17.50;72.50;;;;;;5072938;28;20146;-72
2022/08/07 00:51:51;;;;;;;5.88;4.75;;;17.50;72.90;;;;;;5072720;28;20440;-72
2022/08/07 00:54:16;;;;;;;5.82;5.10;;;17.50;73.10;;;;;;5072921;28;20024;-72
2022/08/07 00:56:42;;;;;;;7.85;5.10;;;17.60;72.80;;;;;;5072762;28;20044;-72
2022/08/07 00:59:08;;;;;;;5.32;4.80;;;17.60;72.80;;;;;;5072642;28;20048;-72
2022/08/07 01:01:34;;;;;;;8.25;5.40;;;17.60;72.30;;;;;;5072859;28;20039;-72
2022/08/07 01:04:05;;;;;;;8.15;5.75;;;17.50;72.50;;;;;;5077724;28;20485;-72
2022/08/07 01:06:30;;;;;;;7.45;6.53;;;17.40;72.80;;;;;;5073039;28;20102;-72
2022/08/07 01:08:57;;;;;;;5.35;4.85;;;17.40;72.90;;;;;;5073243;28;20048;-73
2022/08/07 01:11:23;;;;;;;8.57;6.13;;;17.30;73.10;;;;;;5073666;28;20135;-72
2022/08/07 01:13:48;;;;;;;5.70;5.05;;;17.30;73.90;;;;;;5072757;28;20525;-72
2022/08/07 01:16:14;;;;;;;7.38;5.25;;;17.20;73.00;;;;;;5076222;28;20028;-72
2022/08/07 01:18:39;;;;;;;5.43;4.88;;;17.30;73.40;;;;;;5075264;28;20177;-73
2022/08/07 01:21:05;;;;;;;5.53;5.03;;;17.40;72.90;;;;;;5076462;28;20032;-73
2022/08/07 01:23:31;;;;;;;5.47;4.97;;;17.50;72.20;;;;;;5076446;28;20033;-72
2022/08/07 01:25:58;;;;;;;5.63;4.97;;;17.60;72.20;;;;;;5076403;28;20025;-73
2022/08/07 01:28:24;;;;;;;7.40;5.07;;;17.60;72.10;;;;;;5075074;28;20025;-72
2022/08/07 01:30:52;;;;;;;4.93;4.47;;;17.70;71.60;;;;;;5076367;28;20029;-73
2022/08/07 01:33:18;;;;;;;7.95;5.18;;;17.70;71.00;;;;;;5076347;28;20031;-73
2022/08/07 01:35:43;;;;;;;7.03;4.95;;;17.70;71.20;;;;;;5076290;28;20458;-73
2022/08/07 01:38:09;;;;;;;6.00;4.20;;;17.80;71.10;;;;;;5076042;28;20488;-72
2022/08/07 01:40:35;;;;;;;5.32;4.82;;;17.70;70.80;;;;;;5076143;28;20036;-72
2022/08/07 01:43:01;;;;;;;5.80;4.47;;;17.70;71.10;;;;;;5076038;28;20024;-72
2022/08/07 01:45:27;;;;;;;5.57;5.07;;;17.70;70.90;;;;;;5074729;28;20112;-73
2022/08/07 01:47:52;;;;;;;9.95;4.70;;;17.80;70.50;;;;;;5075865;28;20044;-72
2022/08/07 01:50:18;;;;;;;4.70;4.20;;;17.80;70.40;;;;;;5076045;28;20024;-72
2022/08/07 01:52:46;;;;;;;6.95;4.50;;;17.80;70.50;;;;;;5075971;28;20459;-73
2022/08/07 01:55:14;;;;;;;9.85;4.50;;;17.90;70.40;;;;;;5075969;28;20078;-73
2022/08/07 01:57:41;;;;;;;5.90;4.95;;;17.90;70.20;;;;;;5075861;28;20031;-72
2022/08/07 02:00:10;;;;;;;6.18;4.85;;;17.90;70.00;;;;;;5075814;28;20111;-73
2022/08/07 02:02:53;;;;;;;5.53;5.03;;;17.70;70.10;;;;;;5075839;28;20024;-72
2022/08/07 02:05:32;;;;;;;6.22;5.60;;;17.50;71.10;;;;;;5075719;28;20075;-73
2022/08/07 02:08:02;;;;;;;7.78;5.93;;;17.30;71.70;;;;;;5075789;28;20064;-72
2022/08/07 02:10:29;;;;;;;5.63;5.10;;;17.20;72.30;;;;;;5075688;28;20524;-72
2022/08/07 02:12:58;;;;;;;6.63;5.93;;;17.10;73.00;;;;;;5075698;28;20107;-72
2022/08/07 02:15:26;;;;;;;7.05;5.30;;;17.00;73.90;;;;;;5074304;28;20107;-73
2022/08/07 02:17:53;;;;;;;7.45;6.32;;;16.90;73.70;;;;;;5075382;28;20064;-72
2022/08/07 02:20:21;;;;;;;9.35;5.18;;;16.80;73.90;;;;;;5075553;28;20028;-73
2022/08/07 02:22:49;;;;;;;5.88;5.35;;;16.70;74.20;;;;;;5075460;28;20036;-72
2022/08/07 02:25:18;;;;;;;11.38;6.15;;;16.70;74.30;;;;;;5075451;28;20024;-73
2022/08/07 02:27:46;;;;;;;6.00;5.50;;;16.70;74.20;;;;;;5074705;28;20025;-72
2022/08/07 02:30:12;;;;;;;5.72;5.13;;;16.60;74.10;;;;;;5075107;28;20135;-72
2022/08/07 02:32:38;;;;;;;8.10;5.57;;;16.70;74.50;;;;;;5074061;28;20115;-73
2022/08/07 02:35:06;;;;;;;6.57;5.85;;;16.60;74.50;;;;;;5075191;28;20541;-72
2022/08/07 02:37:34;;;;;;;9.00;5.65;;;16.70;74.80;;;;;;5075084;28;20412;-72
2022/08/07 02:40:01;;;;;;;6.15;5.25;;;16.80;74.20;;;;;;5075147;28;20054;-72
2022/08/07 02:42:29;;;;;;;6.88;5.35;;;16.80;73.20;;;;;;5075252;28;20555;-73
2022/08/07 02:44:56;;;;;;;7.50;5.00;;;16.90;73.60;;;;;;5074987;28;20020;-73
2022/08/07 02:47:22;;;;;;;5.95;5.03;;;16.90;73.10;;;;;;5074829;28;20042;-73
2022/08/07 02:49:48;;;;;;;6.93;5.35;;;17.00;72.80;;;;;;5074895;28;20032;-73
2022/08/07 02:52:19;;;;;;;5.05;4.65;;;16.90;72.20;;;;;;5074846;28;20020;-73
2022/08/07 02:54:47;;;;;;;5.50;4.97;;;16.80;72.20;;;;;;5074837;28;20048;-73
2022/08/07 02:57:14;;;;;;;6.22;4.85;;;16.70;72.70;;;;;;5074754;28;20029;-73
2022/08/07 02:59:47;;;;;;;7.13;4.50;;;16.60;73.00;;;;;;5074681;28;20032;-73
2022/08/07 03:02:14;;;;;;;5.93;5.05;;;16.60;73.50;;;;;;5074715;28;20524;-71
2022/08/07 03:04:42;;;;;;;5.95;5.28;;;16.60;73.50;;;;;;5074651;28;20055;-73
2022/08/07 03:07:08;;;;;;;5.43;4.93;;;16.60;73.30;;;;;;5074522;28;20095;-72
2022/08/07 03:09:34;;;;;;;5.60;5.05;;;16.60;73.00;;;;;;5073311;28;20487;-72
2022/08/07 03:12:04;;;;;;;5.22;4.72;;;16.70;73.10;;;;;;5074482;28;20033;-72
2022/08/07 03:14:31;;;;;;;6.35;5.40;;;16.50;73.00;;;;;;5074433;28;20107;-72
2022/08/07 03:16:57;;;;;;;7.10;5.60;;;16.30;73.40;;;;;;5074392;28;20021;-72
2022/08/07 03:19:24;;;;;;;7.30;5.70;;;16.20;73.80;;;;;;5074229;28;20040;-73
2022/08/07 03:21:51;;;;;;;6.07;5.47;;;16.20;75.00;;;;;;5074288;28;20028;-72
2022/08/07 03:24:16;;;;;;;5.63;5.03;;;16.20;75.00;;;;;;5074134;28;20030;-72
2022/08/07 03:26:44;;;;;;;7.03;5.30;;;16.20;74.90;;;;;;5074177;28;20024;-72
2022/08/07 03:29:12;;;;;;;5.80;5.20;;;16.20;74.80;;;;;;5074134;28;20024;-72
2022/08/07 03:31:39;;;;;;;5.40;4.90;;;16.20;74.40;;;;;;5074109;28;20024;-72
2022/08/07 03:34:07;;;;;;;5.82;5.28;;;16.10;74.40;;;;;;5073994;28;20020;-72
2022/08/07 03:36:33;;;;;;;5.40;4.82;;;16.20;74.40;;;;;;5073953;28;20027;-72
2022/08/07 03:39:07;;;;;;;5.57;5.03;;;16.20;74.20;;;;;;5072828;28;20044;-72
2022/08/07 03:41:34;;;;;;;5.53;5.03;;;16.30;73.60;;;;;;5073883;28;20082;-72
2022/08/07 03:44:00;;;;;;;7.45;4.80;;;16.30;74.20;;;;;;5073803;28;20082;-72
2022/08/07 03:46:27;;;;;;;5.43;4.90;;;16.20;73.00;;;;;;5073792;28;20028;-72
2022/08/07 03:48:53;;;;;;;6.50;5.00;;;16.20;73.10;;;;;;5073579;28;20135;-72
2022/08/07 03:51:20;;;;;;;6.72;5.05;;;16.20;73.30;;;;;;5073740;28;20059;-73
2022/08/07 03:53:46;;;;;;;6.38;4.82;;;16.20;73.30;;;;;;5073582;28;20036;-72
2022/08/07 03:56:17;;;;;;;6.65;5.18;;;16.20;73.50;;;;;;5073526;28;20032;-72
2022/08/07 03:58:43;;;;;;;5.45;4.60;;;16.20;73.10;;;;;;5073467;28;20039;-72
2022/08/07 04:01:09;;;;;;;5.25;4.32;;;16.20;73.00;;;;;;5073528;28;20024;-72
2022/08/07 04:03:35;;;;;;;4.95;4.55;;;16.10;72.90;;;;;;5073447;28;20031;-72
2022/08/07 04:06:01;;;;;;;6.80;4.65;;;16.10;73.20;;;;;;5073338;28;20032;-72
2022/08/07 04:08:27;;;;;;;5.07;4.68;;;16.10;73.30;;;;;;5073436;28;20029;-72
2022/08/07 04:10:53;;;;;;;5.25;4.53;;;16.10;74.00;;;;;;5073464;28;20104;-72
2022/08/07 04:13:20;;;;;;;6.63;4.65;;;16.10;73.20;;;;;;5072189;28;20055;-72
2022/08/07 04:15:46;;;;;;;5.65;4.60;;;16.30;72.60;;;;;;5073328;28;20020;-72
2022/08/07 04:18:13;;;;;;;5.22;4.70;;;16.30;71.90;;;;;;5073076;28;20036;-73
2022/08/07 04:20:39;;;;;;;5.10;4.70;;;16.40;71.50;;;;;;5073160;28;20080;-72
2022/08/07 04:23:05;;;;;;;6.70;4.40;;;16.40;71.10;;;;;;5073340;28;20470;-73
2022/08/07 04:25:32;;;;;;;9.05;6.10;;;16.20;70.80;;;;;;5071914;28;20021;-73
2022/08/07 04:27:58;;;;;;;7.03;5.25;;;15.90;72.20;;;;;;5073314;28;20028;-72
2022/08/07 04:30:24;;;;;;;5.75;4.88;;;15.80;72.80;;;;;;5073070;28;20071;-72
2022/08/07 04:32:51;;;;;;;5.05;4.55;;;15.70;73.50;;;;;;5073136;28;20028;-72
2022/08/07 04:35:16;;;;;;;6.10;4.68;;;15.80;73.60;;;;;;5073043;28;20020;-72
2022/08/07 04:37:42;;;;;;;5.35;4.85;;;15.80;73.50;;;;;;5072901;28;20036;-72
2022/08/07 04:40:08;;;;;;;5.68;5.07;;;15.90;73.40;;;;;;5073034;28;20120;-72
2022/08/07 04:42:34;;;;;;;8.18;4.65;;;15.80;72.90;;;;;;5072994;28;20063;-72
2022/08/07 04:45:02;;;;;;;7.35;5.35;;;15.90;73.10;;;;;;5073022;28;20559;-72
2022/08/07 04:48:05;;;;;;;6.10;5.50;;;15.90;72.70;;;;;;5072818;28;20069;-73
2022/08/07 04:50:51;;;;;;;5.47;4.93;;;16.00;72.60;;;;;;5050491;28;20526;-72
2022/08/07 04:53:23;;;;;;;;;;;16.00;72.80;;;;;;5072255;28;20036;-72
2022/08/07 04:56:28;;;;;;;5.07;4.60;;;16.00;72.40;;;;;;5072944;28;20365;-72
2022/08/07 04:59:20;;;;;;;5.80;4.93;;;16.00;72.50;;;;;;5050521;28;20063;-72
2022/08/07 05:01:55;;;;;;;4.85;4.45;;;16.00;72.70;;;;;;5072877;28;20028;-73
2022/08/07 05:04:50;;;;;;;5.50;4.90;;;16.10;72.60;;;;;;5071487;28;20054;-72
2022/08/07 05:07:21;;;;;;;5.45;4.70;;;16.10;72.50;;;;;;5064407;28;20528;-75
2022/08/07 05:10:01;;;;;;;5.25;4.70;;;16.10;72.20;;;;;;5072926;28;20425;-73
2022/08/07 05:12:36;;;;;;;5.65;5.05;;;16.10;72.30;;;;;;5072737;28;20429;-72
2022/08/07 05:15:15;;;;;;;7.60;4.85;;;16.10;72.60;;;;;;5072682;28;20021;-74
2022/08/07 05:17:47;;;;;;;6.63;5.68;;;16.10;72.70;;;;;;5072863;28;20426;-72
2022/08/07 05:20:15;;;;;;;5.18;4.45;;;16.20;72.70;;;;;;5072630;28;20037;-72
2022/08/07 05:22:43;;;;;;;5.18;4.68;;;16.20;72.60;;;;;;5072715;28;20025;-72
2022/08/07 05:25:13;;;;;;;5.55;5.03;;;16.30;72.10;;;;;;5072598;28;20039;-72
2022/08/07 05:27:41;;;;;;;5.97;4.63;;;16.40;71.80;;;;;;5072549;28;20035;-72
2022/08/07 05:30:07;;;;;;;6.28;5.45;;;16.60;71.10;;;;;;5072633;28;20036;-72
2022/08/07 05:32:34;;;;;;;8.05;4.97;;;16.70;70.20;;;;;;5072535;28;20406;-72
2022/08/07 05:35:01;;;;;;;7.28;4.85;;;16.80;69.40;;;;;;5072588;28;20116;-72
2022/08/07 05:37:28;;;;;;;5.40;4.75;;;16.90;69.20;;;;;;5072410;28;20099;-72
2022/08/07 05:39:55;;;;;;;5.00;4.30;;;16.90;69.00;;;;;;5072387;28;20028;-72
2022/08/07 05:42:21;;;;;;;4.88;4.38;;;17.00;68.70;;;;;;5072444;28;20502;-73
2022/08/07 05:44:47;;;;;;;7.18;4.30;;;17.10;68.10;;;;;;5071117;28;20032;-72
2022/08/07 05:47:18;;;;;;;8.95;5.00;;;17.00;67.80;;;;;;5072213;28;20040;-72
2022/08/07 05:49:48;;;;;;;5.47;4.47;;;17.20;67.50;;;;;;5072468;28;20025;-72
2022/08/07 05:52:14;;;;;;;5.00;4.30;;;17.10;67.70;;;;;;5072320;28;20096;-72
2022/08/07 05:54:39;;;;;;;6.35;4.30;;;17.20;67.20;;;;;;5072368;28;20166;-72
2022/08/07 05:57:06;;;;;;;4.15;3.75;;;17.00;67.20;;;;;;5071132;28;20025;-72
2022/08/07 05:59:36;;;;;;;5.10;4.32;;;17.10;67.40;;;;;;5072232;28;20040;-72
2022/08/07 06:02:05;;;;;;;6.00;4.38;;;17.20;67.00;;;;;;5073804;28;20032;-72
2022/08/07 06:04:36;;;;;;;5.78;4.45;;;17.30;67.40;;;;;;5075803;28;20024;-71
2022/08/07 06:07:04;;;;;;;8.05;4.38;;;17.20;66.90;;;;;;5075709;28;20035;-77
2022/08/07 06:09:31;;;;;;;4.15;3.85;;;17.30;67.30;;;;;;5074565;28;20021;-73
2022/08/07 06:11:58;;;;;;;4.68;4.28;;;17.40;66.80;;;;;;5075727;28;20025;-74
2022/08/07 06:14:23;;;;;;;4.28;3.97;;;17.30;66.70;;;;;;5075557;28;20428;-72
2022/08/07 06:16:51;;;;;;;7.35;4.88;;;17.30;66.90;;;;;;5075681;28;20028;-72
2022/08/07 06:19:17;;;;;;;5.22;4.72;;;17.40;66.80;;;;;;5075445;28;20086;-71
2022/08/07 06:21:44;;;;;;;5.15;4.30;;;17.50;66.40;;;;;;5075649;28;20027;-74
2022/08/07 06:24:10;;;;;;;6.25;5.40;;;17.50;66.30;;;;;;5075537;28;20035;-73
2022/08/07 06:26:39;;;;;;;5.43;4.60;;;17.30;67.00;;;;;;5075485;28;20024;-75
2022/08/07 06:29:04;;;;;;;9.13;5.13;;;17.30;67.10;;;;;;5075325;28;20054;-73
2022/08/07 06:31:30;;;;;;;6.47;4.63;;;17.40;66.80;;;;;;5075259;28;20024;-73
2022/08/07 06:33:55;;;;;;;6.32;4.45;;;17.50;67.00;;;;;;5075281;28;20112;-72
2022/08/07 06:36:21;;;;;;;9.50;4.68;;;17.60;66.50;;;;;;5074899;28;20032;-73
2022/08/07 06:38:47;;;;;;;5.68;4.38;;;17.70;66.10;;;;;;5075114;28;20149;-73
2022/08/07 06:41:19;;;;;;;7.38;4.50;;;17.70;66.30;;;;;;5075124;28;20111;-72
2022/08/07 06:43:46;;;;;;;4.72;4.10;;;17.70;65.50;;;;;;5075105;28;20029;-74
2022/08/07 06:46:13;;;;;;;4.03;3.40;;;17.30;66.10;;;;;;5075052;28;20021;-74
2022/08/07 06:48:40;;;;;;;5.55;4.00;;;17.40;66.50;;;;;;5074756;28;20056;-71
2022/08/07 06:51:08;;;;;;;5.68;3.30;;;17.50;65.60;;;;;;5074980;28;20107;-73
2022/08/07 06:53:38;;;;;;;6.72;3.60;;;17.70;65.60;;;;;;5074952;28;20035;-71
2022/08/07 06:56:05;;;;;;;3.10;2.80;;;17.70;64.80;;;;;;5074809;28;20099;-73
2022/08/07 06:58:34;;;;;;;4.13;3.20;;;17.80;64.50;;;;;;5074700;28;20112;-72
2022/08/07 07:01:01;;;;;;;4.03;2.92;;;17.70;64.50;;;;;;5074759;28;20017;-72
2022/08/07 07:03:27;;;;;;;10.75;2.97;;;17.80;64.30;;;;;;5074731;28;20108;-72
2022/08/07 07:05:52;;;;;;;5.35;3.17;;;17.90;64.10;;;;;;5073342;28;20115;-71
2022/08/07 07:08:28;;;;;;;4.35;3.30;;;18.00;63.50;;;;;;5074628;28;20028;-72
2022/08/07 07:10:54;;;;;;;3.92;2.85;;;18.00;62.60;;;;;;5074674;28;20466;-71
2022/08/07 07:13:29;;;;;;;4.32;2.60;;;18.00;63.60;;;;;;5074468;28;20059;-71
2022/08/07 07:16:01;;;;;;;4.13;3.25;;;18.20;63.20;;;;;;5074474;28;20055;-73
2022/08/07 07:19:00;;;;;;;6.35;2.83;;;17.90;63.30;;;;;;5074239;28;20467;-73
2022/08/07 07:21:29;;;;;;;3.30;2.80;;;17.90;64.10;;;;;;5069952;28;20051;-72
2022/08/07 07:23:56;;;;;;;4.07;2.60;;;18.00;64.20;;;;;;5072965;28;20029;-72
2022/08/07 07:26:22;;;;;;;3.33;2.53;;;18.20;63.60;;;;;;5074073;28;20021;-72
2022/08/07 07:28:53;;;;;;;3.33;2.45;;;18.40;63.30;;;;;;5074100;28;20512;-72
2022/08/07 07:31:42;;;;;;;5.72;2.20;;;18.60;62.70;;;;;;5073952;28;20020;-73
2022/08/07 07:34:12;;;;;;;4.07;2.45;;;18.70;62.20;;;;;;5073890;28;20048;-72
2022/08/07 07:36:40;;;;;;;3.20;2.90;;;18.80;61.60;;;;;;5074014;28;20103;-72
2022/08/07 07:39:07;;;;;;;6.03;2.47;;;18.80;61.70;;;;;;5073612;28;20032;-73
2022/08/07 07:41:34;;;;;;;4.63;2.25;;;18.90;61.40;;;;;;5074163;28;20112;-73
2022/08/07 07:44:01;;;;;;;5.35;2.53;;;19.10;61.20;;;;;;5073834;28;20028;-73
2022/08/07 07:46:33;;;;;;;4.55;2.38;;;19.30;60.50;;;;;;5073907;28;20096;-72
2022/08/07 07:49:01;;;;;;;3.90;1.90;;;19.30;60.30;;;;;;5073651;28;20044;-72
2022/08/07 07:51:28;;;;;;;5.30;2.20;;;19.60;59.80;;;;;;5073732;28;20024;-72
2022/08/07 07:53:56;;;;;;;5.70;2.40;;;19.50;59.80;;;;;;5073732;28;20028;-72
2022/08/07 07:56:25;;;;;;;3.67;1.60;;;19.60;59.60;;;;;;5073647;28;20028;-73
2022/08/07 07:58:53;;;;;;;5.00;2.20;;;19.80;59.60;;;;;;5072193;28;20039;-73
2022/08/07 08:01:20;;;;;;;2.97;1.73;;;20.00;58.80;;;;;;5073545;28;20497;-71
2022/08/07 08:03:46;;;;;;;3.63;2.38;;;20.20;58.10;;;;;;5073530;28;20048;-72
2022/08/07 08:06:12;;;;;;;3.28;1.80;;;20.40;57.60;;;;;;5073282;28;20060;-72
2022/08/07 08:08:41;;;;;;;3.78;3.28;;;20.60;56.90;;;;;;5073473;28;20043;-72
2022/08/07 08:11:08;;;;;;;3.33;2.55;;;20.80;56.70;;;;;;5073032;28;20109;-72
2022/08/07 08:13:36;;;;;;;2.22;1.70;;;21.00;56.40;;;;;;5073907;28;20031;-73
2022/08/07 08:16:04;;;;;;;1.92;1.50;;;21.20;54.90;;;;;;5073560;28;20029;-73
2022/08/07 08:18:30;;;;;;;2.45;1.63;;;21.30;54.70;;;;;;5073029;28;20067;-72
2022/08/07 08:21:00;;;;;;;2.47;1.75;;;21.40;54.60;;;;;;5073392;28;20024;-72
2022/08/07 08:28:59;;;;;;;1.63;1.52;;;21.00;55.20;;;;;;5075384;28;20146;-73
2022/08/07 08:31:29;;;;;;;1.77;1.50;;;21.20;54.90;;;;;;5081058;28;20029;-72
2022/08/07 08:33:56;;;;;;;3.70;1.52;;;21.40;54.60;;;;;;5084568;28;20031;-73
2022/08/07 08:36:26;;;;;;;1.90;1.52;;;21.60;54.00;;;;;;5083943;28;20079;-72
2022/08/07 08:38:54;;;;;;;1.30;1.20;;;21.70;53.30;;;;;;5081887;28;20070;-72
2022/08/07 08:41:42;;;;;;;1.45;1.30;;;21.80;52.50;;;;;;5082413;28;20483;-72
2022/08/07 08:44:38;;;;;;;2.05;1.23;;;21.90;51.70;;;;;;5082273;28;20055;-73
2022/08/07 08:47:28;;;;;;;2.53;1.17;;;22.00;51.00;;;;;;5073057;28;20490;-73
2022/08/07 08:50:24;;;;;;;1.75;1.23;;;22.10;50.40;;;;;;5072961;28;20510;-72
2022/08/07 08:53:20;;;;;;;1.75;1.17;;;22.20;49.60;;;;;;5067589;28;20037;-74
2022/08/07 08:55:50;;;;;;;4.03;1.90;;;22.20;49.60;;;;;;5072917;28;20052;-73
2022/08/07 08:58:28;;;;;;;1.42;1.25;;;22.20;49.50;;;;;;5073006;28;20094;-73
2022/08/07 09:01:08;;;;;;;1.27;1.17;;;22.30;48.70;;;;;;5072858;28;20016;-76
2022/08/07 09:03:48;;;;;;;2.03;1.13;;;22.40;47.10;;;;;;5072690;28;20428;-73
2022/08/07 09:06:28;;;;;;;3.25;2.00;;;22.40;48.10;;;;;;5072880;28;20374;-72
2022/08/07 09:09:28;;;;;;;3.35;1.40;;;22.60;47.30;;;;;;5072689;28;20021;-72
2022/08/07 09:12:12;;;;;;;1.88;1.27;;;22.70;46.90;;;;;;5072779;28;20028;-71
2022/08/07 09:14:47;;;;;;;2.22;1.42;;;22.80;46.90;;;;;;5072739;28;20025;-72
2022/08/07 09:17:30;;;;;;;6.10;1.20;;;22.80;46.10;;;;;;5072872;28;20107;-71
2022/08/07 09:20:17;;;;;;;4.25;1.48;;;22.90;45.70;;;;;;5072458;28;20193;-73
2022/08/07 09:23:00;;;;;;;2.88;1.23;;;22.70;44.70;;;;;;5072585;28;20028;-72
2022/08/07 09:25:48;;;;;;;1.33;1.00;;;22.80;45.40;;;;;;5072499;28;20048;-72
2022/08/07 09:28:43;;;;;;;2.85;1.38;;;23.00;45.50;;;;;;5072702;28;20035;-72
2022/08/07 09:31:46;;;;;;;5.95;1.50;;;23.10;45.00;;;;;;5072513;28;20382;-74
2022/08/07 09:34:28;;;;;;;3.55;1.17;;;23.20;44.30;;;;;;5072706;28;20060;-73
2022/08/07 09:37:03;;;;;;;4.72;1.00;;;23.30;44.60;;;;;;5072429;28;20522;-72
2022/08/07 09:39:47;;;;;;;3.58;0.85;;;23.40;43.90;;;;;;5074739;28;20033;-71
2022/08/07 09:42:32;;;;;;;6.75;1.17;;;23.60;43.40;;;;;;5076164;28;20028;-72
2022/08/07 09:45:11;;;;;;;2.63;1.25;;;23.80;42.30;;;;;;5076085;28;20024;-72
2022/08/07 09:48:15;;;;;;;2.35;0.90;;;23.80;41.60;;;;;;5075944;28;20044;-72
2022/08/07 09:50:58;;;;;;;1.52;1.05;;;23.90;41.30;;;;;;5075822;28;20396;-71
2022/08/07 09:53:26;;;;;;;2.10;1.02;;;24.00;41.20;;;;;;5075925;28;20113;-72
2022/08/07 09:56:26;;;;;;;5.22;1.10;;;24.10;40.80;;;;;;5075886;28;20031;-71
2022/08/07 09:59:03;;;;;;;3.60;0.95;;;24.20;39.60;;;;;;5075653;28;20095;-71
2022/08/07 10:02:06;;;;;;;1.63;0.80;;;24.40;39.60;;;;;;5076156;28;20025;-71
2022/08/07 10:04:49;;;;;;;2.15;0.88;;;24.60;39.80;;;;;;5075777;28;20034;-72
2022/08/07 10:07:30;;;;;;;1.63;0.90;;;24.80;38.60;;;;;;5075845;28;20028;-73
2022/08/07 10:10:32;;;;;;;3.35;0.98;;;24.90;38.40;;;;;;5074528;28;20031;-71
2022/08/07 10:13:10;;;;;;;5.95;1.70;;;25.20;37.80;;;;;;5095534;28;20025;-73
2022/08/07 10:15:48;;;;;;;5.10;1.00;;;25.30;36.90;;;;;;5074492;28;20504;-72
2022/08/07 10:18:44;;;;;;;1.45;0.88;;;25.30;37.30;;;;;;5074397;28;20033;-72
2022/08/07 10:21:41;;;;;;;1.60;1.20;;;25.50;36.60;;;;;;5074205;28;20021;-72
2022/08/07 10:24:13;;;;;;;1.45;1.30;;;25.60;35.60;;;;;;5074230;28;20447;-71
2022/08/07 10:26:52;;;;;;;1.85;1.05;;;25.50;35.40;;;;;;5074221;28;20028;-71
2022/08/07 10:29:20;;;;;;;3.28;1.00;;;25.40;35.20;;;;;;5075290;28;20035;-71
2022/08/07 10:32:19;;;;;;;2.40;1.02;;;25.50;35.80;;;;;;5075332;28;20028;-71
2022/08/07 10:35:03;;;;;;;0.93;0.70;;;25.60;35.40;;;;;;5075403;28;20025;-71
2022/08/07 10:37:47;;;;;;;1.48;0.90;;;25.70;35.10;;;;;;5075288;28;20383;-72
2022/08/07 10:40:32;;;;;;;1.35;0.88;;;25.70;34.90;;;;;;5076899;28;20086;-73
2022/08/07 10:43:08;;;;;;;2.28;0.70;;;25.60;34.40;;;;;;5075145;28;20021;-72
2022/08/07 10:45:40;;;;;;;2.42;0.98;;;25.80;35.00;;;;;;5075078;28;20028;-71
2022/08/07 10:48:15;;;;;;;1.38;0.90;;;26.00;34.60;;;;;;5074329;28;20076;-71
2022/08/07 10:50:41;;;;;;;1.05;0.70;;;26.00;34.20;;;;;;5074802;28;20095;-71
2022/08/07 10:53:35;;;;;;;0.95;0.80;;;26.20;33.90;;;;;;5074837;28;20021;-72
2022/08/07 10:56:03;;;;;;;2.83;1.10;;;26.00;33.60;;;;;;5074892;28;20526;-73
2022/08/07 10:58:55;;;;;;;2.88;0.90;;;26.10;34.50;;;;;;5074690;28;20021;-71
2022/08/07 11:01:28;;;;;;;2.50;0.70;;;26.30;33.40;;;;;;5074595;28;20028;-72
2022/08/07 11:04:10;;;;;;;1.00;0.90;;;26.40;33.10;;;;;;5074706;28;20357;-71
2022/08/07 11:06:53;;;;;;;1.90;0.95;;;26.50;32.30;;;;;;5074672;28;20016;-78
2022/08/07 11:09:27;;;;;;;1.52;0.88;;;26.60;32.30;;;;;;5073359;28;20186;-76
2022/08/07 11:12:05;;;;;;;1.30;0.52;;;26.60;32.20;;;;;;5072948;28;20021;-76
2022/08/07 11:14:46;;;;;;;2.92;0.80;;;26.70;32.40;;;;;;5073316;28;20050;-78
2022/08/07 11:17:33;;;;;;;2.00;1.02;;;26.70;31.80;;;;;;5073199;28;20020;-78
2022/08/07 11:20:07;;;;;;;2.78;0.82;;;26.80;31.50;;;;;;5072716;28;20039;-77
2022/08/07 11:22:56;;;;;;;3.85;0.90;;;26.80;31.80;;;;;;5073272;28;20056;-78
2022/08/07 11:25:29;;;;;;;1.27;0.68;;;26.90;30.90;;;;;;5073205;28;20083;-78
2022/08/07 11:28:15;;;;;;;2.28;0.90;;;27.00;31.80;;;;;;5072877;28;20054;-78
2022/08/07 11:30:59;;;;;;;1.40;0.77;;;27.10;31.40;;;;;;5073991;28;20358;-78
2022/08/07 11:33:46;;;;;;;2.35;1.05;;;27.10;30.70;;;;;;5074159;28;20107;-78
2022/08/07 11:36:42;;;;;;;2.90;0.98;;;27.10;31.00;;;;;;5067984;28;20029;-78
2022/08/07 11:39:34;;;;;;;2.53;0.85;;;27.20;30.70;;;;;;5072481;28;20036;-78
2022/08/07 11:42:18;;;;;;;1.20;0.90;;;27.30;31.00;;;;;;5070358;28;20055;-79
2022/08/07 11:45:09;;;;;;;3.90;2.10;;;27.40;30.40;;;;;;5072844;28;20094;-79
2022/08/07 11:48:12;;;;;;;1.40;1.00;;;27.50;29.90;;;;;;5072733;28;20044;-79
2022/08/07 11:51:17;;;;;;;1.20;0.85;;;27.40;29.00;;;;;;5072513;28;20040;-79
2022/08/07 11:54:11;;;;;;;1.38;1.05;;;27.40;29.80;;;;;;5072601;28;20367;-78
2022/08/07 11:56:55;;;;;;;1.60;0.80;;;27.40;30.40;;;;;;5067836;28;20028;-78
2022/08/07 11:59:57;;;;;;;2.80;0.75;;;27.50;30.20;;;;;;5071798;28;20029;-77
2022/08/07 12:02:44;;;;;;;5.05;0.93;;;27.60;29.40;;;;;;5072459;28;20028;-77
2022/08/07 12:05:57;;;;;;;2.65;0.90;;;27.80;29.70;;;;;;5072174;28;20086;-76
2022/08/07 12:08:30;;;;;;;1.05;0.65;;;27.90;29.60;;;;;;5072076;28;20174;-75
2022/08/07 12:11:20;;;;;;;2.15;0.60;;;27.90;29.20;;;;;;5072029;28;20029;-75
2022/08/07 12:13:56;;;;;;;3.13;0.80;;;28.10;30.00;;;;;;5072431;28;20016;-77
2022/08/07 12:16:27;;;;;;;1.38;0.85;;;28.20;29.60;;;;;;5072946;28;20081;-81
2022/08/07 12:19:22;;;;;;;1.15;0.70;;;28.40;29.70;;;;;;5072074;28;20055;-78
2022/08/07 12:22:01;;;;;;;4.10;0.80;;;28.50;29.10;;;;;;5034261;28;20040;-77
2022/08/07 12:27:52;;;;;;;1.75;0.77;;;28.40;27.80;;;;;;5051184;28;20532;-76
2022/08/07 12:30:18;;;;;;;1.92;0.88;;;28.50;28.90;;;;;;5033949;28;20064;-75
2022/08/07 12:32:57;;;;;;;2.60;0.60;;;28.70;29.10;;;;;;5034043;28;20029;-75
2022/08/07 12:35:24;;;;;;;2.50;0.85;;;28.90;28.10;;;;;;5034219;28;20187;-75
2022/08/07 12:37:52;;;;;;;2.75;0.60;;;28.90;27.70;;;;;;5033996;28;20075;-77
2022/08/07 12:40:22;;;;;;;3.80;0.80;;;28.80;26.90;;;;;;5033944;28;20033;-76
2022/08/07 12:42:52;;;;;;;2.33;0.90;;;28.90;27.50;;;;;;5033877;28;20029;-76
2022/08/07 12:45:24;;;;;;;1.58;0.60;;;29.00;27.80;;;;;;5034187;28;20135;-76
2022/08/07 12:48:08;;;;;;;2.42;1.00;;;29.10;26.40;;;;;;5033794;28;20041;-76
2022/08/07 12:50:54;;;;;;;0.68;0.60;;;29.20;27.40;;;;;;5034137;28;20021;-75
2022/08/07 12:53:36;;;;;;;1.80;1.10;;;29.40;26.80;;;;;;5060460;28;20032;-76
2022/08/07 12:56:34;;;;;;;3.03;0.95;;;29.40;25.70;;;;;;5071864;28;20521;-75
2022/08/07 12:59:06;;;;;;;1.08;0.70;;;29.30;26.50;;;;;;5071663;28;20040;-75
2022/08/07 13:01:53;;;;;;;1.55;0.88;;;29.40;26.40;;;;;;5071467;28;20048;-75
2022/08/07 13:04:46;;;;;;;1.58;0.80;;;29.40;25.90;;;;;;5071693;28;20174;-76
2022/08/07 13:08:00;;;;;;;1.75;0.70;;;29.20;25.60;;;;;;5071532;28;20052;-75
2022/08/07 13:10:44;;;;;;;3.17;1.00;;;29.00;27.10;;;;;;5054231;28;20105;-75
2022/08/07 13:13:15;;;;;;;1.20;0.80;;;28.90;26.50;;;;;;5057893;28;20051;-75
2022/08/07 13:16:18;;;;;;;3.33;0.80;;;29.20;27.40;;;;;;5057780;28;20071;-75
2022/08/07 13:18:49;;;;;;;1.38;0.93;;;29.40;26.30;;;;;;5057651;28;20066;-76
2022/08/07 13:21:38;;;;;;;1.02;0.80;;;29.70;25.20;;;;;;5057637;28;20029;-75
2022/08/07 13:24:26;;;;;;;1.83;0.70;;;30.00;25.60;;;;;;5057609;28;20048;-76
2022/08/07 13:27:17;;;;;;;3.25;0.70;;;30.10;25.70;;;;;;5057474;28;20420;-76
2022/08/07 13:30:02;;;;;;;1.63;0.88;;;30.30;25.00;;;;;;5057605;28;20027;-76